Time;durP1;ratioP1;P1;durP2;ratioP2;P2;SDS_P1;SDS_P2;PMS_P1;PMS_P2;Temp;Humidity;BMP_temperature;BMP_pressure;BME280_temperature;BME280_humidity;BME280_pressure;Samples;Min_cycle;Max_cycle;Signal;HPM_P1;HPM_P2
2021/05/17 00:02:11;;;;;;;5.93;1.90;;;;;;;;;;4913660;29;20387;-67
2021/05/17 00:04:38;;;;;;;5.20;1.90;;;;;;;;;;4939053;29;20047;-66
2021/05/17 00:07:04;;;;;;;4.18;2.08;;;;;;;;;;4932570;29;20091;-67
2021/05/17 00:09:30;;;;;;;5.40;1.80;;;;;;;;;;4929795;29;20044;-66
2021/05/17 00:11:57;;;;;;;4.32;1.75;;;;;;;;;;4948051;29;20047;-68
2021/05/17 00:14:24;;;;;;;7.80;2.10;;;;;;;;;;4921939;29;20051;-68
2021/05/17 00:16:50;;;;;;;4.22;1.95;;;;;;;;;;4913048;29;20047;-67
2021/05/17 00:19:16;;;;;;;5.28;2.03;;;;;;;;;;4925398;29;20032;-65
2021/05/17 00:21:43;;;;;;;5.18;2.00;;;;;;;;;;4914307;29;20032;-69
2021/05/17 00:24:11;;;;;;;4.53;1.77;;;;;;;;;;4909213;29;20891;-66
2021/05/17 00:26:37;;;;;;;4.20;1.90;;;;;;;;;;4916527;29;20041;-64
2021/05/17 00:29:05;;;;;;;7.40;1.92;;;;;;;;;;4907876;29;20059;-59
2021/05/17 00:31:32;;;;;;;5.40;2.10;;;;;;;;;;4911920;29;20052;-69
2021/05/17 00:33:59;;;;;;;5.07;1.90;;;;;;;;;;4912220;29;20044;-67
2021/05/17 00:36:25;;;;;;;4.47;2.10;;;;;;;;;;4909179;29;20048;-62
2021/05/17 00:38:51;;;;;;;3.92;1.80;;;;;;;;;;4912786;29;20044;-63
2021/05/17 00:41:17;;;;;;;3.97;1.80;;;;;;;;;;4920013;29;20087;-61
2021/05/17 00:43:43;;;;;;;3.50;1.83;;;;;;;;;;4929201;28;20031;-64
2021/05/17 00:46:10;;;;;;;4.05;1.77;;;;;;;;;;4931206;29;20043;-62
2021/05/17 00:48:38;;;;;;;3.58;1.75;;;;;;;;;;4921337;29;20048;-61
2021/05/17 00:51:05;;;;;;;4.05;1.88;;;;;;;;;;4920821;29;20055;-62
2021/05/17 00:53:32;;;;;;;4.07;2.00;;;;;;;;;;4928367;29;20043;-67
2021/05/17 00:55:58;;;;;;;4.57;1.77;;;;;;;;;;4918596;29;20118;-59
2021/05/17 00:58:24;;;;;;;2.65;1.67;;;;;;;;;;4912772;29;20052;-60
2021/05/17 01:00:51;;;;;;;5.43;1.80;;;;;;;;;;4907882;29;20048;-66
2021/05/17 01:03:17;;;;;;;7.18;2.00;;;;;;;;;;4912740;29;20099;-65
2021/05/17 01:05:45;;;;;;;5.57;2.13;;;;;;;;;;4908154;29;20047;-67
2021/05/17 01:08:13;;;;;;;3.90;2.10;;;;;;;;;;4911458;29;20084;-68
2021/05/17 01:10:41;;;;;;;3.25;1.58;;;;;;;;;;4910569;29;20064;-65
2021/05/17 01:13:07;;;;;;;;;;;;;;;;;;4911301;29;20063;-68
2021/05/17 01:15:33;;;;;;;2.63;1.45;;;;;;;;;;4911687;29;19919;-69
2021/05/17 01:18:00;;;;;;;3.65;1.52;;;;;;;;;;4926716;29;20040;-65
2021/05/17 01:20:28;;;;;;;3.35;1.42;;;;;;;;;;4911246;29;20047;-69
2021/05/17 01:23:08;;;;;;;4.65;1.63;;;;;;;;;;4923012;29;20043;-67
2021/05/17 01:25:34;;;;;;;3.38;1.40;;;;;;;;;;4925356;29;20032;-69
2021/05/17 01:28:01;;;;;;;6.72;1.67;;;;;;;;;;4910289;29;20127;-69
2021/05/17 01:30:27;;;;;;;4.78;1.98;;;;;;;;;;4912185;29;20028;-68
2021/05/17 01:32:58;;;;;;;3.85;1.80;;;;;;;;;;4920440;29;20138;-69
2021/05/17 01:35:25;;;;;;;3.92;1.63;;;;;;;;;;4931885;29;20096;-69
2021/05/17 01:37:51;;;;;;;4.03;1.88;;;;;;;;;;4919641;29;20048;-68
2021/05/17 01:40:19;;;;;;;5.53;2.10;;;;;;;;;;4912606;29;20048;-66
2021/05/17 01:42:48;;;;;;;3.65;1.67;;;;;;;;;;4908590;29;20040;-70
2021/05/17 01:45:14;;;;;;;4.95;1.83;;;;;;;;;;4912965;29;20040;-67
2021/05/17 01:47:40;;;;;;;6.40;1.80;;;;;;;;;;4909441;29;20031;-65
2021/05/17 01:50:07;;;;;;;3.53;1.52;;;;;;;;;;4912717;29;20036;-66
2021/05/17 01:52:38;;;;;;;7.28;2.58;;;;;;;;;;4911162;29;20055;-67
2021/05/17 01:55:05;;;;;;;3.70;1.60;;;;;;;;;;4930449;29;20038;-64
2021/05/17 01:57:32;;;;;;;5.03;1.70;;;;;;;;;;4928474;29;20035;-66
2021/05/17 01:59:58;;;;;;;6.60;2.03;;;;;;;;;;4929450;29;20094;-65
2021/05/17 02:02:24;;;;;;;3.92;2.00;;;;;;;;;;4912618;29;20040;-69
2021/05/17 02:04:52;;;;;;;4.38;1.48;;;;;;;;;;4925821;29;20046;-66
2021/05/17 02:07:18;;;;;;;3.42;1.58;;;;;;;;;;4929490;29;20089;-69
2021/05/17 02:09:44;;;;;;;6.78;1.80;;;;;;;;;;4913061;29;20028;-68
2021/05/17 02:12:13;;;;;;;5.57;1.83;;;;;;;;;;4912381;29;20044;-67
2021/05/17 02:14:40;;;;;;;8.55;1.60;;;;;;;;;;4921972;29;20113;-63
2021/05/17 02:17:06;;;;;;;5.47;2.03;;;;;;;;;;4945095;29;20036;-62
2021/05/17 02:19:32;;;;;;;4.05;1.90;;;;;;;;;;4929794;29;20058;-65
2021/05/17 02:21:59;;;;;;;3.88;1.65;;;;;;;;;;4911770;29;20036;-61
2021/05/17 02:24:26;;;;;;;5.35;1.58;;;;;;;;;;4915496;29;20035;-69
2021/05/17 02:26:52;;;;;;;2.80;1.92;;;;;;;;;;4917017;29;20127;-66
2021/05/17 02:29:19;;;;;;;5.32;1.92;;;;;;;;;;4905328;29;20142;-62
2021/05/17 02:31:53;;;;;;;7.38;1.77;;;;;;;;;;4909736;29;20028;-70
2021/05/17 02:34:19;;;;;;;5.32;1.90;;;;;;;;;;4908073;29;20048;-68
2021/05/17 02:36:45;;;;;;;8.88;2.38;;;;;;;;;;4910833;29;20040;-68
2021/05/17 02:39:12;;;;;;;4.68;2.15;;;;;;;;;;4908658;29;20040;-69
2021/05/17 02:41:40;;;;;;;7.05;2.42;;;;;;;;;;4915610;29;20055;-67
2021/05/17 02:44:06;;;;;;;;;;;;;;;;;;4912212;29;20064;-68
2021/05/17 02:46:33;;;;;;;4.55;1.65;;;;;;;;;;4906899;29;19923;-68
2021/05/17 02:49:00;;;;;;;9.10;2.25;;;;;;;;;;4910311;29;20092;-68
2021/05/17 02:51:26;;;;;;;6.43;2.45;;;;;;;;;;4906584;29;20115;-66
2021/05/17 02:54:19;;;;;;;4.80;2.22;;;;;;;;;;4911829;29;20123;-70
2021/05/17 02:57:02;;;;;;;5.82;2.05;;;;;;;;;;4897658;29;20036;-69
2021/05/17 02:59:38;;;;;;;4.88;2.10;;;;;;;;;;4910528;29;20138;-68
2021/05/17 03:02:06;;;;;;;6.00;2.17;;;;;;;;;;4924333;29;20043;-69
2021/05/17 03:04:35;;;;;;;4.30;1.52;;;;;;;;;;4928912;29;20047;-68
2021/05/17 03:07:03;;;;;;;9.18;2.00;;;;;;;;;;4925897;29;20048;-66
2021/05/17 03:09:30;;;;;;;7.80;1.95;;;;;;;;;;4946197;29;20142;-70
2021/05/17 03:11:59;;;;;;;5.80;2.10;;;;;;;;;;4926580;29;20044;-71
2021/05/17 03:14:25;;;;;;;4.13;1.75;;;;;;;;;;4919403;29;20050;-63
2021/05/17 03:16:52;;;;;;;7.75;2.53;;;;;;;;;;4910444;29;20035;-61
2021/05/17 03:19:19;;;;;;;8.65;2.33;;;;;;;;;;4930210;29;20039;-63
2021/05/17 03:21:46;;;;;;;6.47;2.33;;;;;;;;;;4918835;29;20052;-67
2021/05/17 03:24:13;;;;;;;6.22;1.88;;;;;;;;;;4927913;29;20087;-64
2021/05/17 03:26:40;;;;;;;5.97;1.95;;;;;;;;;;4905602;29;20040;-66
2021/05/17 03:29:06;;;;;;;12.17;2.27;;;;;;;;;;4930191;29;20035;-61
2021/05/17 03:31:32;;;;;;;4.80;1.83;;;;;;;;;;4923412;29;20066;-61
2021/05/17 03:34:00;;;;;;;8.63;2.03;;;;;;;;;;4911221;29;20036;-61
2021/05/17 03:36:26;;;;;;;7.25;2.50;;;;;;;;;;4907591;29;20047;-63
2021/05/17 03:38:53;;;;;;;8.63;2.47;;;;;;;;;;4910621;29;20040;-67
2021/05/17 03:41:19;;;;;;;5.43;2.15;;;;;;;;;;4923096;29;20043;-63
2021/05/17 03:44:28;;;;;;;6.60;1.80;;;;;;;;;;4944266;29;20051;-66
2021/05/17 03:46:54;;;;;;;8.80;1.60;;;;;;;;;;4928417;29;20095;-67
2021/05/17 03:49:20;;;;;;;6.07;1.95;;;;;;;;;;4930140;29;20049;-61
2021/05/17 03:51:46;;;;;;;5.35;2.17;;;;;;;;;;4913264;29;20051;-63
2021/05/17 03:54:13;;;;;;;6.55;2.03;;;;;;;;;;4905714;29;20122;-65
2021/05/17 03:56:39;;;;;;;5.70;2.03;;;;;;;;;;4926095;29;20043;-59
2021/05/17 03:59:05;;;;;;;6.32;2.13;;;;;;;;;;4922118;29;20087;-66
2021/05/17 04:01:31;;;;;;;8.35;2.28;;;;;;;;;;4931074;29;20049;-67
2021/05/17 04:03:58;;;;;;;6.97;2.33;;;;;;;;;;4924475;29;20175;-62
2021/05/17 04:06:26;;;;;;;5.20;2.38;;;;;;;;;;4927550;29;20042;-63
2021/05/17 04:14:20;;;;;;;7.97;2.20;;;;;;;;;;4892840;29;20040;-65
2021/05/17 04:16:46;;;;;;;5.13;1.90;;;;;;;;;;4910797;29;20044;-69
2021/05/17 04:19:12;;;;;;;6.47;2.03;;;;;;;;;;4910470;29;20067;-68
2021/05/17 04:21:38;;;;;;;7.28;2.05;;;;;;;;;;4913516;29;20047;-61
2021/05/17 04:24:05;;;;;;;7.13;2.22;;;;;;;;;;4907259;29;20040;-67
2021/05/17 04:26:31;;;;;;;6.28;1.98;;;;;;;;;;4924333;29;20058;-67
2021/05/17 04:28:58;;;;;;;6.55;2.10;;;;;;;;;;4927387;29;20048;-69
2021/05/17 04:31:24;;;;;;;7.80;2.10;;;;;;;;;;4932753;29;20040;-62
2021/05/17 04:33:51;;;;;;;5.65;2.22;;;;;;;;;;4927010;29;20106;-62
2021/05/17 04:36:17;;;;;;;8.20;2.90;;;;;;;;;;4913546;29;20044;-72
2021/05/17 04:38:43;;;;;;;7.40;2.30;;;;;;;;;;4913532;29;20099;-58
2021/05/17 04:41:10;;;;;;;6.20;2.40;;;;;;;;;;4921012;29;20044;-75
2021/05/17 04:43:46;;;;;;;7.28;2.42;;;;;;;;;;4932538;29;20028;-64
2021/05/17 04:46:13;;;;;;;6.70;2.40;;;;;;;;;;4927867;29;20039;-59
2021/05/17 04:48:48;;;;;;;11.73;2.47;;;;;;;;;;4908277;29;20053;-58
2021/05/17 04:51:14;;;;;;;6.20;2.35;;;;;;;;;;4906949;29;20052;-58
2021/05/17 04:53:40;;;;;;;7.82;2.50;;;;;;;;;;4901769;29;20060;-65
2021/05/17 04:56:06;;;;;;;7.68;2.65;;;;;;;;;;4901714;29;20049;-61
2021/05/17 04:58:32;;;;;;;8.50;2.53;;;;;;;;;;4896933;29;20128;-60
2021/05/17 05:00:58;;;;;;;6.38;2.70;;;;;;;;;;4906181;29;20071;-57
2021/05/17 05:03:29;;;;;;;10.50;2.50;;;;;;;;;;4910881;29;20040;-59
2021/05/17 05:05:55;;;;;;;6.70;2.45;;;;;;;;;;4904998;29;20053;-58
2021/05/17 05:08:21;;;;;;;7.95;3.00;;;;;;;;;;4908040;29;20028;-58
2021/05/17 05:10:47;;;;;;;6.55;2.60;;;;;;;;;;4903277;29;20041;-57
2021/05/17 05:13:13;;;;;;;9.52;3.03;;;;;;;;;;4918624;29;20048;-55
2021/05/17 05:15:39;;;;;;;8.98;2.33;;;;;;;;;;4906154;29;20118;-58
2021/05/17 05:18:05;;;;;;;8.35;2.65;;;;;;;;;;4915689;29;20068;-62
2021/05/17 05:20:32;;;;;;;6.93;2.50;;;;;;;;;;4923270;29;20048;-62
2021/05/17 05:23:00;;;;;;;10.05;3.20;;;;;;;;;;4907955;29;20052;-58
2021/05/17 05:25:33;;;;;;;5.93;2.63;;;;;;;;;;4926278;29;20040;-60
2021/05/17 05:28:00;;;;;;;5.90;2.70;;;;;;;;;;4903798;29;20104;-58
2021/05/17 05:30:38;;;;;;;5.38;2.38;;;;;;;;;;4907514;29;20036;-62
2021/05/17 05:33:11;;;;;;;6.53;1.92;;;;;;;;;;4902376;29;20085;-59
2021/05/17 05:35:39;;;;;;;6.57;2.40;;;;;;;;;;4907819;29;20036;-60
2021/05/17 05:38:05;;;;;;;6.47;2.10;;;;;;;;;;4902013;29;20048;-58
2021/05/17 05:40:31;;;;;;;4.63;2.17;;;;;;;;;;4903768;29;20060;-66
2021/05/17 05:42:58;;;;;;;5.85;1.85;;;;;;;;;;4901341;29;20043;-65
2021/05/17 05:45:24;;;;;;;5.70;2.00;;;;;;;;;;4906962;29;20048;-66
2021/05/17 05:47:50;;;;;;;5.50;2.20;;;;;;;;;;4905286;29;20050;-62
2021/05/17 05:50:16;;;;;;;5.25;1.83;;;;;;;;;;4918056;29;20064;-58
2021/05/17 05:52:46;;;;;;;10.68;3.70;;;;;;;;;;4902608;29;20032;-58
2021/05/17 05:55:13;;;;;;;8.98;3.13;;;;;;;;;;4905995;29;20108;-63
2021/05/17 05:57:41;;;;;;;6.70;2.70;;;;;;;;;;4901832;29;20099;-58
2021/05/17 06:00:11;;;;;;;4.93;2.10;;;;;;;;;;4908794;29;20052;-61
2021/05/17 06:02:40;;;;;;;5.57;2.00;;;;;;;;;;4896533;29;20064;-63
2021/05/17 06:05:09;;;;;;;3.95;2.28;;;;;;;;;;4911714;29;20131;-58
2021/05/17 06:07:35;;;;;;;6.00;2.17;;;;;;;;;;4909492;28;20039;-62
2021/05/17 06:10:02;;;;;;;2.75;1.50;;;;;;;;;;4929253;28;20054;-60
2021/05/17 06:12:28;;;;;;;6.50;2.03;;;;;;;;;;4926344;29;20047;-61
2021/05/17 06:15:00;;;;;;;6.78;2.00;;;;;;;;;;4908773;29;20041;-61
2021/05/17 06:17:26;;;;;;;8.38;1.88;;;;;;;;;;4910629;29;20065;-59
2021/05/17 06:19:53;;;;;;;6.03;1.88;;;;;;;;;;4922142;29;20036;-61
2021/05/17 06:22:22;;;;;;;5.82;1.75;;;;;;;;;;4910518;29;20067;-58
2021/05/17 06:24:48;;;;;;;6.30;1.95;;;;;;;;;;4908414;29;20162;-62
2021/05/17 06:27:15;;;;;;;6.20;1.75;;;;;;;;;;4893759;29;20060;-58
2021/05/17 06:29:42;;;;;;;5.78;2.05;;;;;;;;;;4914938;29;20114;-65
2021/05/17 06:32:11;;;;;;;7.70;1.92;;;;;;;;;;4931220;29;20051;-62
2021/05/17 06:34:38;;;;;;;11.80;2.25;;;;;;;;;;4933212;29;20054;-63
2021/05/17 06:37:04;;;;;;;4.05;1.70;;;;;;;;;;4912287;29;20048;-67
2021/05/17 06:39:30;;;;;;;7.68;2.10;;;;;;;;;;4907300;29;20114;-67
2021/05/17 06:42:02;;;;;;;5.43;1.58;;;;;;;;;;4944797;29;20122;-66
2021/05/17 06:44:29;;;;;;;10.38;1.90;;;;;;;;;;4919186;29;20044;-67
2021/05/17 06:46:55;;;;;;;5.22;1.70;;;;;;;;;;4910544;29;20052;-69
2021/05/17 06:49:22;;;;;;;2.90;1.73;;;;;;;;;;4916747;29;20044;-64
2021/05/17 06:51:54;;;;;;;6.57;1.92;;;;;;;;;;4928545;29;20040;-59
2021/05/17 06:54:24;;;;;;;5.82;2.15;;;;;;;;;;4911391;29;20067;-61
2021/05/17 06:56:54;;;;;;;5.78;1.88;;;;;;;;;;4929215;29;20067;-66
2021/05/17 06:59:22;;;;;;;3.95;1.70;;;;;;;;;;4924026;29;20051;-60
2021/05/17 07:01:49;;;;;;;7.43;1.80;;;;;;;;;;4910126;29;20055;-70
2021/05/17 07:04:16;;;;;;;11.45;1.80;;;;;;;;;;4908891;29;20049;-67
2021/05/17 07:06:45;;;;;;;7.55;1.90;;;;;;;;;;4907445;29;20047;-62
2021/05/17 07:12:01;;;;;;;5.47;1.55;;;;;;;;;;4905468;29;20073;-62
2021/05/17 07:14:27;;;;;;;4.63;1.80;;;;;;;;;;4910495;29;20051;-67
2021/05/17 07:16:56;;;;;;;9.50;1.77;;;;;;;;;;4922493;29;20055;-63
2021/05/17 07:19:22;;;;;;;7.93;1.70;;;;;;;;;;4927164;29;20042;-64
2021/05/17 07:24:32;;;;;;;6.47;1.80;;;;;;;;;;4890357;29;20033;-61
2021/05/17 07:26:58;;;;;;;9.82;1.95;;;;;;;;;;4923337;29;20075;-70
2021/05/17 07:29:24;;;;;;;9.27;1.90;;;;;;;;;;4890899;29;20041;-64
2021/05/17 07:31:53;;;;;;;5.93;1.83;;;;;;;;;;4910857;29;20054;-65
2021/05/17 07:34:20;;;;;;;8.73;1.88;;;;;;;;;;4929561;29;20051;-61
2021/05/17 07:36:47;;;;;;;7.70;1.90;;;;;;;;;;4923519;29;20054;-65
2021/05/17 07:39:14;;;;;;;6.53;1.88;;;;;;;;;;4929327;29;20103;-67
2021/05/17 07:41:40;;;;;;;5.72;2.10;;;;;;;;;;4911312;29;20052;-61
2021/05/17 07:44:06;;;;;;;7.55;1.88;;;;;;;;;;4910761;29;20032;-61
2021/05/17 07:46:32;;;;;;;6.55;2.13;;;;;;;;;;4907989;29;20028;-59
2021/05/17 07:49:14;;;;;;;6.72;1.80;;;;;;;;;;4908925;29;20054;-58
2021/05/17 07:51:41;;;;;;;8.10;1.70;;;;;;;;;;4908775;29;20035;-58
2021/05/17 07:54:08;;;;;;;5.07;1.57;;;;;;;;;;4912210;29;20032;-58
2021/05/17 07:56:33;;;;;;;6.00;1.70;;;;;;;;;;4908470;29;20275;-65
2021/05/17 07:59:00;;;;;;;6.18;1.60;;;;;;;;;;4930723;29;20036;-64
2021/05/17 08:01:26;;;;;;;6.65;1.67;;;;;;;;;;4932836;29;20039;-64
2021/05/17 08:03:52;;;;;;;7.82;1.95;;;;;;;;;;4910649;29;20036;-68
2021/05/17 08:06:19;;;;;;;5.28;1.80;;;;;;;;;;4912344;29;20044;-66
2021/05/17 08:08:45;;;;;;;10.98;1.88;;;;;;;;;;4940918;28;20109;-64
2021/05/17 08:11:11;;;;;;;5.60;1.77;;;;;;;;;;4933210;29;20039;-60
2021/05/17 08:13:38;;;;;;;13.20;3.05;;;;;;;;;;4917534;29;20052;-62
2021/05/17 08:16:05;;;;;;;14.25;2.92;;;;;;;;;;4930942;29;20040;-64
2021/05/17 08:18:32;;;;;;;5.88;2.03;;;;;;;;;;4919510;29;20311;-69
2021/05/17 08:20:58;;;;;;;4.80;1.67;;;;;;;;;;4945771;29;20091;-67
2021/05/17 08:23:25;;;;;;;5.47;1.65;;;;;;;;;;4931496;29;20037;-64
2021/05/17 08:25:51;;;;;;;6.25;1.83;;;;;;;;;;4896598;29;20052;-66
2021/05/17 08:28:17;;;;;;;5.55;1.77;;;;;;;;;;4899134;29;20040;-59
2021/05/17 08:30:44;;;;;;;6.07;1.90;;;;;;;;;;4901481;29;20052;-59
2021/05/17 08:33:14;;;;;;;5.15;1.45;;;;;;;;;;4903183;29;20104;-60
2021/05/17 08:35:41;;;;;;;5.60;1.73;;;;;;;;;;4908517;29;20406;-62
2021/05/17 08:38:07;;;;;;;4.20;1.85;;;;;;;;;;4901821;29;20060;-68
2021/05/17 08:40:35;;;;;;;4.47;1.42;;;;;;;;;;4904702;29;20139;-60
2021/05/17 08:43:01;;;;;;;5.68;1.63;;;;;;;;;;4903282;29;20044;-59
2021/05/17 08:45:27;;;;;;;6.28;1.58;;;;;;;;;;4895455;29;20040;-70
2021/05/17 08:47:54;;;;;;;12.05;1.75;;;;;;;;;;4902483;29;20052;-63
2021/05/17 08:50:20;;;;;;;5.32;1.50;;;;;;;;;;4919731;29;20056;-66
2021/05/17 08:52:46;;;;;;;57.00;3.53;;;;;;;;;;4901114;29;20052;-61
2021/05/17 08:55:13;;;;;;;18.02;2.17;;;;;;;;;;4891143;29;20037;-62
2021/05/17 08:57:42;;;;;;;9.00;1.83;;;;;;;;;;4903434;29;20046;-66
2021/05/17 09:00:12;;;;;;;3.42;1.70;;;;;;;;;;4903484;29;20058;-65
2021/05/17 09:02:38;;;;;;;6.82;2.05;;;;;;;;;;4900339;29;20040;-63
2021/05/17 09:05:08;;;;;;;76.03;4.38;;;;;;;;;;4899652;29;20076;-62
2021/05/17 09:07:35;;;;;;;6.28;2.50;;;;;;;;;;4916163;29;20050;-62
2021/05/17 09:10:12;;;;;;;7.85;2.30;;;;;;;;;;4895264;29;20040;-59
2021/05/17 09:12:51;;;;;;;9.93;2.55;;;;;;;;;;4902612;29;20039;-61
2021/05/17 09:15:26;;;;;;;5.43;2.33;;;;;;;;;;4899140;29;20040;-60
2021/05/17 09:17:55;;;;;;;8.02;2.38;;;;;;;;;;4902514;29;20047;-62
2021/05/17 09:20:22;;;;;;;11.27;2.85;;;;;;;;;;4901632;29;20047;-65
2021/05/17 09:22:50;;;;;;;6.82;2.17;;;;;;;;;;4897367;29;20045;-58
2021/05/17 09:25:16;;;;;;;7.70;2.67;;;;;;;;;;4910716;29;20123;-61
2021/05/17 09:27:42;;;;;;;7.53;2.40;;;;;;;;;;4904606;29;20038;-62
2021/05/17 09:30:08;;;;;;;4.13;2.30;;;;;;;;;;4902063;29;20065;-58
2021/05/17 09:32:39;;;;;;;5.20;1.92;;;;;;;;;;4909864;29;20072;-59
2021/05/17 09:35:06;;;;;;;15.93;2.65;;;;;;;;;;4896614;29;20044;-59
2021/05/17 09:37:43;;;;;;;13.40;2.25;;;;;;;;;;4898971;29;20048;-59
2021/05/17 09:40:16;;;;;;;6.40;2.67;;;;;;;;;;4902648;29;20043;-65
2021/05/17 09:42:42;;;;;;;10.18;2.70;;;;;;;;;;4898259;29;20043;-71
2021/05/17 09:45:14;;;;;;;6.28;2.45;;;;;;;;;;4896927;29;20060;-69
2021/05/17 09:47:56;;;;;;;10.18;2.92;;;;;;;;;;4902547;29;20043;-57
2021/05/17 09:50:22;;;;;;;5.20;2.60;;;;;;;;;;4904325;29;20079;-59
2021/05/17 09:52:49;;;;;;;13.05;2.50;;;;;;;;;;4915134;29;20047;-62
2021/05/17 09:55:15;;;;;;;7.07;2.63;;;;;;;;;;4928083;29;20098;-62
2021/05/17 09:57:42;;;;;;;27.63;2.83;;;;;;;;;;4901226;29;20051;-60
2021/05/17 10:00:14;;;;;;;4.72;2.20;;;;;;;;;;4901995;29;20044;-59
2021/05/17 10:02:41;;;;;;;7.75;2.47;;;;;;;;;;4896949;29;20052;-60
2021/05/17 10:05:13;;;;;;;4.78;2.20;;;;;;;;;;4900980;29;20036;-63
2021/05/17 10:07:39;;;;;;;5.70;2.33;;;;;;;;;;4901531;29;20032;-59
2021/05/17 10:10:06;;;;;;;4.95;1.90;;;;;;;;;;4895237;29;20138;-59
2021/05/17 10:12:32;;;;;;;4.22;1.73;;;;;;;;;;4898903;29;20036;-59
2021/05/17 10:14:58;;;;;;;5.03;1.90;;;;;;;;;;4898849;29;20044;-59
2021/05/17 10:17:24;;;;;;;5.38;2.00;;;;;;;;;;4901920;29;20051;-60
2021/05/17 10:19:50;;;;;;;4.85;2.35;;;;;;;;;;4894235;29;20037;-58
2021/05/17 10:22:24;;;;;;;8.70;2.42;;;;;;;;;;4891483;29;20073;-65
2021/05/17 10:24:50;;;;;;;9.23;1.98;;;;;;;;;;4930763;29;20039;-60
2021/05/17 10:27:16;;;;;;;7.60;1.58;;;;;;;;;;4903327;29;20044;-63
2021/05/17 10:29:44;;;;;;;3.03;1.30;;;;;;;;;;4898072;29;20056;-62
2021/05/17 10:32:12;;;;;;;4.63;1.90;;;;;;;;;;4901891;29;20032;-61
2021/05/17 10:34:49;;;;;;;5.72;2.00;;;;;;;;;;4895651;29;20051;-60
2021/05/17 10:37:24;;;;;;;8.50;2.00;;;;;;;;;;4917389;29;20036;-59
2021/05/17 10:40:00;;;;;;;4.00;2.00;;;;;;;;;;4896654;29;20036;-65
2021/05/17 10:42:42;;;;;;;7.00;1.85;;;;;;;;;;4881005;29;20036;-68
2021/05/17 10:48:12;;;;;;;4.82;2.00;;;;;;;;;;4893544;29;20037;-62
2021/05/17 10:50:39;;;;;;;6.85;2.10;;;;;;;;;;4914201;29;20056;-64
2021/05/17 10:53:05;;;;;;;6.38;2.00;;;;;;;;;;4890269;29;20211;-59
2021/05/17 10:55:34;;;;;;;5.38;1.88;;;;;;;;;;4896583;29;20051;-62
2021/05/17 10:58:17;;;;;;;;;;;;;;;;;;4899171;29;20050;-57
2021/05/17 11:00:44;;;;;;;7.88;3.17;;;;;;;;;;4917778;29;20389;-58
2021/05/17 11:03:11;;;;;;;5.78;2.08;;;;;;;;;;4902433;29;20056;-60
2021/05/17 11:05:38;;;;;;;6.40;2.15;;;;;;;;;;4901849;29;20036;-60
2021/05/17 11:08:05;;;;;;;4.38;1.80;;;;;;;;;;4921318;29;20048;-63
2021/05/17 11:10:34;;;;;;;4.85;1.33;;;;;;;;;;4891750;29;20048;-65
2021/05/17 11:13:00;;;;;;;;;;;;;;;;;;4909932;29;20133;-67
2021/05/17 11:15:27;;;;;;;2.55;1.38;;;;;;;;;;4898567;29;19931;-61
2021/05/17 11:17:54;;;;;;;5.38;1.92;;;;;;;;;;4909745;29;20044;-65
2021/05/17 11:20:41;;;;;;;4.35;2.00;;;;;;;;;;4899360;29;20081;-62
2021/05/17 11:23:14;;;;;;;3.00;1.63;;;;;;;;;;4894176;29;20092;-63
2021/05/17 11:25:52;;;;;;;4.82;2.03;;;;;;;;;;4915750;29;20053;-64
2021/05/17 11:28:19;;;;;;;4.35;1.95;;;;;;;;;;4909639;29;20040;-67
2021/05/17 11:30:46;;;;;;;5.60;2.13;;;;;;;;;;4898253;29;20063;-65
2021/05/17 11:33:13;;;;;;;5.50;2.40;;;;;;;;;;4907337;29;20039;-61
2021/05/17 11:35:54;;;;;;;4.15;1.90;;;;;;;;;;4905216;29;20046;-62
2021/05/17 11:38:20;;;;;;;5.32;2.42;;;;;;;;;;4895917;29;20036;-63
2021/05/17 11:40:49;;;;;;;6.97;2.58;;;;;;;;;;4898267;29;20306;-61
2021/05/17 11:43:16;;;;;;;8.43;3.03;;;;;;;;;;4914846;29;20036;-62
2021/05/17 11:45:42;;;;;;;5.10;2.10;;;;;;;;;;4913165;29;20060;-63
2021/05/17 11:48:08;;;;;;;70.72;3.95;;;;;;;;;;4929607;29;20133;-71
2021/05/17 11:50:35;;;;;;;4.75;2.38;;;;;;;;;;4929100;29;20043;-69
2021/05/17 11:53:05;;;;;;;5.75;2.78;;;;;;;;;;4895190;29;20052;-66
2021/05/17 11:55:44;;;;;;;5.50;2.70;;;;;;;;;;4912437;29;20036;-66
2021/05/17 11:58:10;;;;;;;2.80;1.70;;;;;;;;;;4921694;29;20038;-59
2021/05/17 12:00:37;;;;;;;4.80;2.20;;;;;;;;;;4927301;29;20051;-62
2021/05/17 12:03:10;;;;;;;3.65;1.90;;;;;;;;;;4908562;29;20048;-67
2021/05/17 12:05:36;;;;;;;3.22;2.00;;;;;;;;;;4909849;29;20048;-69
2021/05/17 12:08:02;;;;;;;2.55;1.80;;;;;;;;;;4919374;29;20047;-68
2021/05/17 12:10:33;;;;;;;2.88;1.50;;;;;;;;;;4927012;29;20034;-66
2021/05/17 12:13:09;;;;;;;3.30;1.67;;;;;;;;;;4928473;29;20048;-63
2021/05/17 12:15:35;;;;;;;8.57;2.78;;;;;;;;;;4916207;29;20135;-61
2021/05/17 12:18:08;;;;;;;5.13;2.53;;;;;;;;;;4923825;29;20044;-70
2021/05/17 12:20:34;;;;;;;4.10;2.10;;;;;;;;;;4926825;29;20140;-66
2021/05/17 12:23:00;;;;;;;4.68;1.90;;;;;;;;;;4933439;29;20047;-62
2021/05/17 12:25:26;;;;;;;3.67;1.50;;;;;;;;;;4906266;29;20048;-63
2021/05/17 12:27:53;;;;;;;5.25;1.35;;;;;;;;;;4902176;29;20095;-70
2021/05/17 12:30:20;;;;;;;1.90;1.20;;;;;;;;;;4927290;29;20043;-62
2021/05/17 12:32:50;;;;;;;3.65;1.50;;;;;;;;;;4923479;29;20040;-66
2021/05/17 12:35:24;;;;;;;11.43;1.80;;;;;;;;;;4928748;29;20028;-68
2021/05/17 12:37:51;;;;;;;4.68;1.40;;;;;;;;;;4923759;29;20061;-66
2021/05/17 12:40:39;;;;;;;3.20;1.33;;;;;;;;;;4916173;29;20059;-61
2021/05/17 12:43:11;;;;;;;4.05;1.55;;;;;;;;;;4926694;29;20039;-62
2021/05/17 12:45:38;;;;;;;12.50;1.48;;;;;;;;;;4931290;29;20047;-64
2021/05/17 12:48:09;;;;;;;3.75;1.45;;;;;;;;;;4926156;29;20168;-61
2021/05/17 12:50:36;;;;;;;4.72;1.83;;;;;;;;;;4929846;29;20055;-67
2021/05/17 12:53:05;;;;;;;2.70;1.50;;;;;;;;;;4928064;29;20118;-63
2021/05/17 12:55:37;;;;;;;3.65;1.80;;;;;;;;;;4929302;29;20050;-60
2021/05/17 12:58:03;;;;;;;2.97;1.40;;;;;;;;;;4935684;29;20056;-58
2021/05/17 13:00:43;;;;;;;3.63;1.80;;;;;;;;;;4938722;29;20049;-62
2021/05/17 13:03:10;;;;;;;5.20;1.90;;;;;;;;;;4938206;29;20035;-59
2021/05/17 13:05:54;;;;;;;3.50;1.80;;;;;;;;;;4910875;29;20056;-64
2021/05/17 13:08:20;;;;;;;2.63;1.67;;;;;;;;;;4913225;29;20119;-65
2021/05/17 13:10:54;;;;;;;2.55;1.80;;;;;;;;;;4924904;29;20056;-59
2021/05/17 13:13:21;;;;;;;3.13;1.75;;;;;;;;;;4931228;29;20066;-60
2021/05/17 13:15:58;;;;;;;2.40;1.35;;;;;;;;;;4925662;29;20040;-59
2021/05/17 13:18:29;;;;;;;5.18;2.00;;;;;;;;;;4927710;29;20040;-64
2021/05/17 13:21:08;;;;;;;6.25;1.30;;;;;;;;;;4908838;29;20036;-63
2021/05/17 13:31:44;;;;;;;2.38;1.20;;;;;;;;;;4884326;29;20058;-66
2021/05/17 13:34:10;;;;;;;4.18;1.10;;;;;;;;;;4930683;29;20031;-60
2021/05/17 13:36:37;;;;;;;3.22;1.15;;;;;;;;;;4912882;29;20212;-65
2021/05/17 13:39:04;;;;;;;3.42;1.15;;;;;;;;;;4913678;29;20055;-64
2021/05/17 13:41:30;;;;;;;6.47;1.55;;;;;;;;;;4918935;29;20179;-60
2021/05/17 13:43:56;;;;;;;6.05;2.70;;;;;;;;;;4929749;29;20043;-68
2021/05/17 13:46:25;;;;;;;8.43;3.55;;;;;;;;;;4925374;29;20060;-60
2021/05/17 13:48:52;;;;;;;8.57;4.38;;;;;;;;;;4946839;29;20115;-61
2021/05/17 13:51:18;;;;;;;11.32;4.28;;;;;;;;;;4926675;29;20086;-60
2021/05/17 13:53:58;;;;;;;11.52;4.72;;;;;;;;;;4946788;29;20039;-69
2021/05/17 13:56:24;;;;;;;7.72;4.55;;;;;;;;;;4926393;29;20051;-58
2021/05/17 13:58:51;;;;;;;9.73;4.50;;;;;;;;;;4943954;29;20055;-59
2021/05/17 14:01:17;;;;;;;9.25;4.45;;;;;;;;;;4920608;29;20050;-59
2021/05/17 14:03:43;;;;;;;11.48;4.82;;;;;;;;;;4909630;29;20048;-60
2021/05/17 14:06:09;;;;;;;10.70;5.40;;;;;;;;;;4906500;29;20058;-64
2021/05/17 14:08:35;;;;;;;11.40;4.72;;;;;;;;;;4926311;29;20043;-59
2021/05/17 14:11:03;;;;;;;8.07;4.75;;;;;;;;;;4910845;29;20054;-58
2021/05/17 14:13:32;;;;;;;9.45;4.57;;;;;;;;;;4907108;29;20111;-59
2021/05/17 14:15:58;;;;;;;8.95;5.07;;;;;;;;;;4911234;29;20069;-60
2021/05/17 14:18:26;;;;;;;13.50;5.82;;;;;;;;;;4909257;29;20056;-60
2021/05/17 14:20:52;;;;;;;13.63;4.87;;;;;;;;;;4912028;29;20046;-59
2021/05/17 14:23:18;;;;;;;10.38;4.80;;;;;;;;;;4907797;29;20035;-59
2021/05/17 14:25:44;;;;;;;8.15;4.75;;;;;;;;;;4906036;29;20040;-59
2021/05/17 14:28:11;;;;;;;10.40;5.05;;;;;;;;;;4929964;29;20063;-59
2021/05/17 14:30:37;;;;;;;10.95;5.45;;;;;;;;;;4930299;29;20046;-58
2021/05/17 14:33:11;;;;;;;12.15;5.35;;;;;;;;;;4927388;29;20048;-59
2021/05/17 14:35:38;;;;;;;11.23;5.28;;;;;;;;;;4928870;29;20088;-61
2021/05/17 14:38:05;;;;;;;13.23;5.82;;;;;;;;;;4916438;29;20067;-61
2021/05/17 14:40:31;;;;;;;11.07;5.80;;;;;;;;;;4925276;29;20048;-61
2021/05/17 14:43:01;;;;;;;11.77;5.72;;;;;;;;;;4909606;29;20044;-60
2021/05/17 14:45:29;;;;;;;10.55;5.43;;;;;;;;;;4912262;29;20065;-60
2021/05/17 14:47:55;;;;;;;14.13;5.43;;;;;;;;;;4924907;29;20039;-63
2021/05/17 14:50:21;;;;;;;12.55;5.40;;;;;;;;;;4911125;29;20032;-61
2021/05/17 14:52:59;;;;;;;11.40;5.32;;;;;;;;;;4901983;29;20115;-58
2021/05/17 14:55:25;;;;;;;11.18;5.38;;;;;;;;;;4892560;29;20054;-60
2021/05/17 14:57:51;;;;;;;12.45;5.80;;;;;;;;;;4892944;29;20049;-62
2021/05/17 15:00:18;;;;;;;11.82;4.35;;;;;;;;;;4924115;29;20047;-61
2021/05/17 15:02:45;;;;;;;9.85;4.22;;;;;;;;;;4930619;29;20058;-61
2021/05/17 15:05:14;;;;;;;7.50;3.38;;;;;;;;;;4910219;29;20067;-60
2021/05/17 15:07:40;;;;;;;7.38;2.90;;;;;;;;;;4917638;29;20043;-65
2021/05/17 15:10:07;;;;;;;5.63;2.38;;;;;;;;;;4912977;29;20043;-65
2021/05/17 15:12:45;;;;;;;3.63;1.98;;;;;;;;;;4904988;29;20071;-59